Time;durP1;ratioP1;P1;durP2;ratioP2;P2;SDS_P1;SDS_P2;PMS_P1;PMS_P2;Temp;Humidity;BMP_temperature;BMP_pressure;BME280_temperature;BME280_humidity;BME280_pressure;Samples;Min_cycle;Max_cycle;Signal;HPM_P1;HPM_P2
2023/08/10 00:01:36;;;;;;;4.13;2.30;;;18.90;59.70;20.70;101943.00;;;;5046751;28;20230;-77
2023/08/10 00:04:04;;;;;;;3.85;2.55;;;18.90;59.80;20.70;101946.00;;;;5048606;28;20215;-76
2023/08/10 00:06:31;;;;;;;3.10;2.03;;;18.90;59.80;20.70;101953.00;;;;5049786;28;20791;-76
2023/08/10 00:08:58;;;;;;;3.72;2.45;;;18.90;59.80;20.70;101953.00;;;;5048067;28;20191;-76
2023/08/10 00:11:26;;;;;;;3.38;2.28;;;18.90;59.90;20.70;101953.00;;;;5049194;28;20211;-76
2023/08/10 00:13:53;;;;;;;3.38;2.33;;;18.90;60.00;20.70;101956.00;;;;5032775;28;20232;-76
2023/08/10 00:16:20;;;;;;;2.08;1.75;;;18.90;59.90;20.70;101958.00;;;;5050121;28;20203;-76
2023/08/10 00:18:47;;;;;;;3.03;2.00;;;18.90;60.00;20.70;101954.00;;;;5048573;28;20195;-76
2023/08/10 00:21:14;;;;;;;3.78;2.35;;;18.90;60.00;20.70;101944.00;;;;5048631;28;20199;-77
2023/08/10 00:23:41;;;;;;;2.65;1.65;;;19.00;60.10;20.70;101945.00;;;;5050196;28;20203;-77
2023/08/10 00:26:08;;;;;;;2.40;1.60;;;19.00;60.10;20.70;101941.00;;;;5048673;28;20199;-77
2023/08/10 00:28:36;;;;;;;2.95;1.40;;;19.00;60.10;20.70;101936.00;;;;5044742;28;20196;-77
2023/08/10 00:31:04;;;;;;;4.25;1.27;;;19.00;60.10;20.80;101932.00;;;;5047874;28;20211;-77
2023/08/10 00:33:31;;;;;;;1.70;1.05;;;19.00;60.00;20.80;101946.00;;;;5049288;28;20725;-77
2023/08/10 00:36:01;;;;;;;2.90;1.13;;;19.00;60.00;20.80;101936.00;;;;5047633;28;20899;-77
2023/08/10 00:38:28;;;;;;;3.63;1.33;;;19.00;60.10;20.80;101943.00;;;;5048981;28;20204;-77
2023/08/10 00:40:55;;;;;;;2.30;1.42;;;19.00;60.00;20.80;101933.00;;;;5049220;28;20834;-77
2023/08/10 00:43:24;;;;;;;1.98;1.20;;;19.00;60.10;20.80;101935.00;;;;5047139;28;20218;-77
2023/08/10 00:45:52;;;;;;;2.67;1.10;;;19.00;60.10;20.80;101953.00;;;;5046888;28;20200;-78
2023/08/10 00:48:21;;;;;;;1.73;1.40;;;19.00;60.10;20.80;101951.00;;;;5039370;28;20204;-77
2023/08/10 00:50:49;;;;;;;2.05;1.20;;;19.00;60.70;20.80;101947.00;;;;5048381;28;20203;-77
2023/08/10 00:53:18;;;;;;;3.30;1.10;;;19.00;60.20;20.80;101951.00;;;;5049537;28;20732;-77
2023/08/10 00:55:51;;;;;;;2.05;1.00;;;19.10;60.20;20.80;101950.00;;;;5048461;28;20192;-77
2023/08/10 00:58:19;;;;;;;3.45;0.90;;;19.00;60.20;20.80;101953.00;;;;5047315;28;20793;-78
2023/08/10 01:00:47;;;;;;;4.55;1.45;;;19.00;60.10;20.80;101954.00;;;;5049519;28;20195;-77
2023/08/10 01:03:16;;;;;;;1.83;1.00;;;19.00;60.20;20.80;101952.00;;;;5046069;28;20214;-77
2023/08/10 01:05:57;;;;;;;2.60;0.93;;;19.00;60.20;20.70;101958.00;;;;5049135;28;20249;-77
2023/08/10 01:08:34;;;;;;;1.27;1.08;;;19.00;60.30;20.70;101964.00;;;;5047798;28;20203;-77
2023/08/10 01:11:16;;;;;;;2.00;1.10;;;19.00;60.20;20.70;101965.00;;;;5049348;28;20195;-76
2023/08/10 01:13:53;;;;;;;2.40;1.00;;;19.00;60.20;20.70;101966.00;;;;5048412;28;20227;-77
2023/08/10 01:16:22;;;;;;;1.55;0.95;;;19.00;60.20;20.70;101955.00;;;;5049302;28;20207;-76
2023/08/10 01:18:52;;;;;;;1.55;0.98;;;19.00;60.20;20.70;101959.00;;;;5045730;28;20893;-77
2023/08/10 01:21:36;;;;;;;1.85;1.00;;;19.00;60.10;20.60;101961.00;;;;5046954;28;20207;-76
2023/08/10 01:24:14;;;;;;;2.03;1.08;;;19.00;60.30;20.60;101965.00;;;;5048274;28;20207;-76
2023/08/10 01:26:43;;;;;;;6.10;1.25;;;19.00;60.10;20.70;101966.00;;;;5047105;28;20563;-76
2023/08/10 01:29:10;;;;;;;3.75;1.35;;;18.90;60.10;20.70;101959.00;;;;5046434;28;20198;-76
2023/08/10 01:31:37;;;;;;;1.92;1.13;;;18.90;60.20;20.70;101959.00;;;;5048254;28;20191;-76
2023/08/10 01:34:05;;;;;;;1.85;1.20;;;18.90;60.20;20.70;101966.00;;;;5046639;28;20781;-76
2023/08/10 01:36:32;;;;;;;1.45;0.95;;;18.90;60.30;20.60;101960.00;;;;5048119;28;20214;-77
2023/08/10 01:38:59;;;;;;;1.23;1.00;;;18.90;60.40;20.60;101966.00;;;;5029456;28;20554;-77
2023/08/10 01:41:26;;;;;;;2.08;1.30;;;18.90;60.50;20.60;101962.00;;;;5047601;28;20215;-77
2023/08/10 01:43:54;;;;;;;2.75;1.20;;;18.80;60.40;20.60;101967.00;;;;5045953;28;20706;-77
2023/08/10 01:46:25;;;;;;;1.77;1.30;;;18.80;60.50;20.60;101963.00;;;;5048507;28;20195;-79
2023/08/10 01:48:56;;;;;;;1.25;1.05;;;18.80;60.60;20.60;101966.00;;;;5046416;28;20222;-76
2023/08/10 01:51:27;;;;;;;1.92;1.08;;;18.80;60.90;20.60;101960.00;;;;5046975;28;20557;-77
2023/08/10 01:53:57;;;;;;;1.88;1.30;;;18.80;60.80;20.60;101963.00;;;;5045189;28;20222;-77
2023/08/10 01:56:25;;;;;;;1.70;1.20;;;18.80;60.90;20.60;101955.00;;;;5047111;28;20202;-77
2023/08/10 01:58:53;;;;;;;2.10;0.90;;;18.80;60.90;20.60;101961.00;;;;5045728;28;20234;-76
2023/08/10 02:01:20;;;;;;;2.10;0.90;;;18.80;61.00;20.60;101961.00;;;;5047963;28;20578;-77
2023/08/10 02:03:49;;;;;;;1.23;0.95;;;18.80;61.00;20.60;101961.00;;;;5046364;28;20214;-77
2023/08/10 02:06:16;;;;;;;1.23;0.93;;;18.80;61.00;20.60;101954.00;;;;5048026;28;20200;-77
2023/08/10 02:08:43;;;;;;;1.35;1.00;;;18.80;61.00;20.60;101959.00;;;;5046561;28;20191;-77
2023/08/10 02:11:10;;;;;;;3.83;1.40;;;18.80;61.00;20.60;101952.00;;;;5047236;28;20590;-77
2023/08/10 02:13:37;;;;;;;1.38;0.80;;;18.80;61.10;20.60;101951.00;;;;5046578;28;20750;-77
2023/08/10 02:16:05;;;;;;;2.90;0.93;;;18.80;61.10;20.50;101951.00;;;;5048273;28;20567;-77
2023/08/10 02:18:32;;;;;;;1.30;1.10;;;18.80;61.20;20.60;101950.00;;;;5046281;28;20204;-76
2023/08/10 02:21:00;;;;;;;1.13;0.80;;;18.80;61.10;20.50;101959.00;;;;5027825;28;20208;-76
2023/08/10 02:23:29;;;;;;;1.00;0.80;;;18.80;61.20;20.50;101961.00;;;;5039571;28;20278;-77
2023/08/10 02:25:56;;;;;;;1.77;0.90;;;18.80;61.20;20.50;101960.00;;;;5047502;28;21145;-77
2023/08/10 02:28:23;;;;;;;3.28;0.88;;;18.70;61.10;20.50;101957.00;;;;5046326;28;20552;-77
2023/08/10 02:30:50;;;;;;;1.05;0.95;;;18.80;61.20;20.50;101950.00;;;;5047934;28;20204;-77
2023/08/10 02:33:18;;;;;;;2.67;0.85;;;18.70;61.20;20.50;101950.00;;;;5046694;28;20211;-77
2023/08/10 02:35:45;;;;;;;1.80;0.82;;;18.70;61.30;20.50;101955.00;;;;5047975;28;20203;-77
2023/08/10 02:38:12;;;;;;;1.13;0.85;;;18.80;61.50;20.50;101947.00;;;;5046265;28;20212;-77
2023/08/10 02:40:39;;;;;;;1.48;1.05;;;18.70;61.30;20.50;101951.00;;;;5047709;28;20195;-77
2023/08/10 02:43:06;;;;;;;1.35;0.95;;;18.70;61.30;20.50;101954.00;;;;5046561;28;20690;-77
2023/08/10 02:45:33;;;;;;;1.05;0.80;;;18.70;61.20;20.40;101958.00;;;;5040751;28;20200;-77
2023/08/10 02:48:00;;;;;;;1.23;0.80;;;18.70;61.30;20.40;101964.00;;;;5036711;28;20681;-77
2023/08/10 02:50:28;;;;;;;2.10;0.90;;;18.70;61.30;20.40;101965.00;;;;5028178;28;20211;-77
2023/08/10 02:52:55;;;;;;;1.75;0.95;;;18.70;61.30;20.40;101956.00;;;;5035970;28;20291;-77
2023/08/10 02:55:22;;;;;;;1.27;0.95;;;18.60;61.30;20.40;101960.00;;;;5052270;28;20196;-77
2023/08/10 02:57:49;;;;;;;2.03;0.80;;;18.60;61.30;20.40;101960.00;;;;5050455;28;20191;-77
2023/08/10 03:00:17;;;;;;;1.77;1.02;;;18.60;61.40;20.40;101965.00;;;;5050099;28;20681;-77
2023/08/10 03:02:44;;;;;;;3.33;1.10;;;18.60;61.40;20.30;101959.00;;;;5049299;28;20268;-77
2023/08/10 03:05:12;;;;;;;1.73;0.80;;;18.60;61.40;20.30;101957.00;;;;5051191;28;20191;-77
2023/08/10 03:07:40;;;;;;;1.08;0.80;;;18.60;61.50;20.30;101954.00;;;;5048811;28;20204;-77
2023/08/10 03:10:09;;;;;;;2.15;0.88;;;18.60;61.50;20.30;101952.00;;;;5050767;28;20235;-77
2023/08/10 03:12:35;;;;;;;1.92;1.13;;;18.50;61.50;20.30;101957.00;;;;5050673;28;20196;-77
2023/08/10 03:15:04;;;;;;;1.83;0.88;;;18.60;61.60;20.30;101962.00;;;;5050404;28;20230;-77
2023/08/10 03:17:31;;;;;;;1.17;0.82;;;18.60;61.70;20.30;101959.00;;;;5048776;28;20210;-77
2023/08/10 03:19:58;;;;;;;1.63;1.13;;;18.60;61.70;20.30;101967.00;;;;5040680;28;20200;-77
2023/08/10 03:22:27;;;;;;;1.30;0.82;;;18.50;61.70;20.30;101965.00;;;;5034796;28;20204;-77
2023/08/10 03:24:56;;;;;;;1.60;0.77;;;18.50;61.70;20.30;101966.00;;;;5050606;28;20198;-77
2023/08/10 03:27:23;;;;;;;1.83;0.90;;;18.60;61.80;20.30;101966.00;;;;5049795;28;20211;-77
2023/08/10 03:29:50;;;;;;;1.20;0.70;;;18.50;61.70;20.30;101974.00;;;;5050579;28;20196;-77
2023/08/10 03:32:17;;;;;;;2.05;0.95;;;18.50;61.80;20.30;101969.00;;;;5049314;28;20679;-77
2023/08/10 03:34:44;;;;;;;1.27;0.75;;;18.50;61.80;20.30;101979.00;;;;5050735;28;20234;-77
2023/08/10 03:37:11;;;;;;;1.95;1.50;;;18.50;61.80;20.30;101975.00;;;;5038265;28;20204;-76
2023/08/10 03:39:38;;;;;;;1.58;0.95;;;18.50;61.90;20.30;101976.00;;;;5047687;28;20682;-76
2023/08/10 03:42:07;;;;;;;2.33;0.77;;;18.50;61.90;20.20;101981.00;;;;5049742;28;20196;-77
2023/08/10 03:44:34;;;;;;;2.17;1.00;;;18.50;61.90;20.20;101984.00;;;;5050826;28;20222;-77
2023/08/10 03:47:01;;;;;;;1.27;0.90;;;18.50;61.90;20.20;101984.00;;;;5047258;28;20655;-77
2023/08/10 03:49:28;;;;;;;2.13;1.15;;;18.50;61.90;20.20;101982.00;;;;5050137;28;20195;-77
2023/08/10 03:51:55;;;;;;;2.38;1.08;;;18.50;61.90;20.20;101980.00;;;;5050375;28;20230;-77
2023/08/10 03:54:23;;;;;;;2.92;1.33;;;18.40;61.90;20.20;101980.00;;;;5048287;28;20219;-77
2023/08/10 03:56:50;;;;;;;2.53;1.08;;;18.50;61.90;20.20;101983.00;;;;5048647;28;20202;-77
2023/08/10 03:59:18;;;;;;;1.88;1.23;;;18.40;61.90;20.20;101983.00;;;;5048892;28;20235;-77
2023/08/10 04:01:45;;;;;;;1.13;0.88;;;18.40;61.90;20.20;101989.00;;;;5031998;28;20334;-77
2023/08/10 04:04:12;;;;;;;1.67;0.98;;;18.40;61.90;20.20;101988.00;;;;5047655;28;20558;-77
2023/08/10 04:06:40;;;;;;;4.30;1.00;;;18.40;61.90;20.10;101988.00;;;;5047905;28;20282;-77
2023/08/10 04:09:09;;;;;;;2.25;1.02;;;18.40;62.00;20.10;101988.00;;;;5049592;28;20238;-77
2023/08/10 04:11:36;;;;;;;2.08;1.35;;;18.40;61.90;20.10;101988.00;;;;5045885;28;20261;-77
2023/08/10 04:14:03;;;;;;;2.67;1.35;;;18.40;62.00;20.10;101991.00;;;;5049275;28;20212;-77
2023/08/10 04:16:32;;;;;;;2.20;1.50;;;18.30;62.00;20.10;101992.00;;;;5046943;28;20207;-77
2023/08/10 04:18:59;;;;;;;1.55;1.10;;;18.30;62.00;20.10;101990.00;;;;5047841;28;20200;-77
2023/08/10 04:21:26;;;;;;;3.17;1.30;;;18.30;62.00;20.10;101998.00;;;;5049137;28;20577;-77
2023/08/10 04:23:53;;;;;;;1.23;0.95;;;18.30;62.00;20.00;101993.00;;;;5047781;28;20207;-77
2023/08/10 04:26:20;;;;;;;1.42;1.30;;;18.30;62.10;20.00;101994.00;;;;5048918;28;20195;-77
2023/08/10 04:28:47;;;;;;;5.35;1.27;;;18.30;62.10;20.00;101998.00;;;;5032698;28;20699;-77
2023/08/10 04:31:14;;;;;;;1.88;1.30;;;18.20;62.10;20.00;101990.00;;;;5049558;28;20585;-76
2023/08/10 04:33:42;;;;;;;3.75;1.20;;;18.20;62.20;20.00;101990.00;;;;5046984;28;20343;-77
2023/08/10 04:36:09;;;;;;;1.27;0.98;;;18.20;62.30;20.00;101993.00;;;;5048705;28;20199;-77
2023/08/10 04:38:36;;;;;;;1.15;1.02;;;18.20;62.30;20.00;101989.00;;;;5038893;28;20192;-77
2023/08/10 04:41:03;;;;;;;1.63;1.00;;;18.20;62.30;20.00;101996.00;;;;5045268;28;20196;-77
2023/08/10 04:43:30;;;;;;;1.95;1.15;;;18.20;62.40;20.00;101990.00;;;;5048047;28;20223;-77
2023/08/10 04:45:57;;;;;;;1.63;1.10;;;18.20;62.40;20.00;101994.00;;;;5030535;28;20664;-77
2023/08/10 04:48:24;;;;;;;2.00;0.90;;;18.20;62.50;19.90;101988.00;;;;5030082;28;20547;-77
2023/08/10 04:50:52;;;;;;;1.50;1.08;;;18.20;62.50;19.90;101991.00;;;;5039528;28;20213;-77
2023/08/10 04:53:19;;;;;;;5.32;1.30;;;18.10;62.40;19.90;101986.00;;;;5046693;28;20258;-77
2023/08/10 04:55:46;;;;;;;5.22;1.42;;;18.10;62.40;19.90;101983.00;;;;5041058;28;20192;-77
2023/08/10 04:58:13;;;;;;;1.80;1.10;;;18.10;62.40;19.90;101991.00;;;;5049247;28;20223;-77
2023/08/10 05:00:40;;;;;;;1.75;1.25;;;18.10;62.40;19.90;101987.00;;;;5049030;28;20553;-77
2023/08/10 05:03:07;;;;;;;2.03;1.38;;;18.10;62.50;19.90;101996.00;;;;5033779;28;20196;-76
2023/08/10 05:05:39;;;;;;;1.92;1.08;;;18.10;62.50;19.80;101989.00;;;;5048650;28;20227;-77
2023/08/10 05:08:07;;;;;;;1.70;1.20;;;18.10;62.50;19.90;101988.00;;;;5048005;28;20215;-77
2023/08/10 05:10:34;;;;;;;1.67;1.10;;;18.10;62.50;19.90;101988.00;;;;5046906;28;20242;-77
2023/08/10 05:13:01;;;;;;;3.45;1.50;;;18.00;62.50;19.90;101990.00;;;;5048480;28;20196;-77
2023/08/10 05:15:29;;;;;;;1.27;1.10;;;18.10;62.70;19.90;101981.00;;;;5048471;28;20587;-77
2023/08/10 05:17:56;;;;;;;1.75;1.10;;;18.10;62.80;19.90;101978.00;;;;5030453;28;20200;-77
2023/08/10 05:20:24;;;;;;;2.78;1.38;;;18.10;62.90;19.90;101981.00;;;;5044418;28;20203;-77
2023/08/10 05:22:51;;;;;;;1.85;0.90;;;18.10;62.90;19.90;101976.00;;;;5048495;28;20199;-76
2023/08/10 05:25:19;;;;;;;2.42;1.30;;;18.10;63.10;19.90;101978.00;;;;5048111;28;20199;-77
2023/08/10 05:27:47;;;;;;;3.22;1.42;;;18.10;63.90;20.00;101979.00;;;;5048159;28;20207;-77
2023/08/10 05:30:14;;;;;;;2.15;1.10;;;18.10;63.20;20.00;101977.00;;;;5046826;28;20205;-77
2023/08/10 05:32:43;;;;;;;1.98;1.40;;;18.20;63.30;20.00;101982.00;;;;5048779;28;20187;-77
2023/08/10 05:35:11;;;;;;;1.88;1.35;;;18.10;63.30;20.10;101981.00;;;;5046511;28;20677;-77
2023/08/10 05:37:39;;;;;;;5.05;1.20;;;18.20;63.50;20.10;101982.00;;;;5036714;28;20203;-77
2023/08/10 05:40:09;;;;;;;1.55;1.20;;;18.30;63.50;20.10;101981.00;;;;5044352;28;20266;-77
2023/08/10 05:42:38;;;;;;;2.75;1.52;;;18.30;63.60;20.20;101983.00;;;;5046255;28;20228;-77
2023/08/10 05:45:08;;;;;;;1.48;1.08;;;18.30;63.60;20.20;101976.00;;;;5048011;28;20195;-77
2023/08/10 05:47:36;;;;;;;3.30;1.45;;;18.40;63.70;20.30;101981.00;;;;5046068;28;20195;-77
2023/08/10 05:50:04;;;;;;;2.22;1.48;;;18.40;63.70;20.30;101980.00;;;;5043949;28;20204;-77
2023/08/10 05:52:31;;;;;;;2.92;1.60;;;18.40;63.70;20.40;101975.00;;;;5035306;28;20209;-77
2023/08/10 05:54:58;;;;;;;2.58;1.30;;;18.50;63.80;20.50;101982.00;;;;5046675;28;20578;-77
2023/08/10 05:57:25;;;;;;;5.00;1.70;;;18.60;63.80;20.50;101977.00;;;;5042868;28;20863;-77
2023/08/10 05:59:55;;;;;;;3.70;1.83;;;18.60;63.80;20.50;101984.00;;;;5042631;28;20223;-78
2023/08/10 06:02:22;;;;;;;3.38;1.40;;;18.70;63.90;20.60;101982.00;;;;5038267;28;20219;-77
2023/08/10 06:04:50;;;;;;;2.00;1.48;;;18.80;64.00;20.70;101985.00;;;;5039731;28;20611;-78
2023/08/10 06:07:17;;;;;;;3.92;2.00;;;18.80;64.00;20.80;101989.00;;;;5037426;28;20230;-78
2023/08/10 06:09:44;;;;;;;4.40;1.70;;;18.90;64.20;20.90;101980.00;;;;5036922;28;20662;-78
2023/08/10 06:12:12;;;;;;;3.58;1.90;;;19.00;64.30;20.90;101978.00;;;;5040679;28;20212;-77
2023/08/10 06:14:39;;;;;;;2.83;1.92;;;19.10;64.40;21.10;101986.00;;;;5036133;28;20224;-78
2023/08/10 06:17:07;;;;;;;2.38;2.15;;;19.10;64.30;21.20;101978.00;;;;5038188;28;20188;-78
2023/08/10 06:19:35;;;;;;;2.30;2.03;;;19.30;64.30;21.30;101986.00;;;;5043245;28;20211;-78
2023/08/10 06:22:02;;;;;;;4.13;2.38;;;19.40;64.30;21.30;101979.00;;;;5035757;28;20196;-78
2023/08/10 06:24:29;;;;;;;2.50;2.10;;;19.50;64.20;21.40;101986.00;;;;5047574;28;20199;-77
2023/08/10 06:26:59;;;;;;;3.03;2.63;;;19.50;64.10;21.50;101982.00;;;;5043050;28;20200;-78
2023/08/10 06:29:26;;;;;;;3.40;2.10;;;19.70;64.00;21.60;101975.00;;;;5044804;28;20204;-77
2023/08/10 06:31:54;;;;;;;2.38;2.00;;;19.70;63.90;21.60;101977.00;;;;5046155;28;20187;-79
2023/08/10 06:34:23;;;;;;;3.50;2.25;;;19.80;63.90;21.70;101972.00;;;;5046157;28;20211;-79
2023/08/10 06:36:52;;;;;;;3.67;2.17;;;19.90;63.90;21.80;101976.00;;;;5042579;28;20207;-78
2023/08/10 06:39:27;;;;;;;3.33;1.83;;;20.00;63.80;21.80;101975.00;;;;5041695;28;20682;-78
2023/08/10 06:41:55;;;;;;;2.65;2.03;;;20.10;63.80;21.90;101976.00;;;;5041473;28;20199;-78
2023/08/10 06:44:22;;;;;;;2.42;2.13;;;20.10;63.60;22.00;101974.00;;;;5044325;28;20312;-78
2023/08/10 06:46:49;;;;;;;3.70;2.42;;;20.20;63.70;22.10;101977.00;;;;5045928;28;20315;-78
2023/08/10 06:49:21;;;;;;;3.33;2.25;;;20.30;63.70;22.20;101976.00;;;;5039474;28;20199;-78
2023/08/10 06:51:51;;;;;;;2.90;2.60;;;20.40;63.70;22.20;101974.00;;;;5042913;28;20208;-78
2023/08/10 06:54:18;;;;;;;3.00;2.15;;;20.50;63.70;22.30;101977.00;;;;5038534;28;20262;-79
2023/08/10 06:56:47;;;;;;;2.13;1.83;;;20.50;63.60;22.40;101982.00;;;;5044686;28;20201;-79
2023/08/10 06:59:14;;;;;;;3.75;2.22;;;20.60;63.70;22.50;101981.00;;;;5039546;28;20235;-79
2023/08/10 07:01:41;;;;;;;4.70;2.85;;;20.70;63.50;22.50;101982.00;;;;5043631;28;20194;-80
2023/08/10 07:04:08;;;;;;;4.28;2.25;;;20.80;63.40;22.60;101983.00;;;;5045498;28;21052;-80
2023/08/10 07:06:35;;;;;;;2.90;2.22;;;20.90;63.30;22.70;101986.00;;;;5043048;28;20206;-79
2023/08/10 07:09:04;;;;;;;2.30;1.55;;;21.00;63.10;22.80;101984.00;;;;5041036;28;20225;-79
2023/08/10 07:11:31;;;;;;;4.35;2.47;;;21.10;63.10;22.90;101984.00;;;;5040394;28;20195;-79
2023/08/10 07:13:59;;;;;;;4.50;2.30;;;21.10;63.00;23.00;101985.00;;;;5040224;28;20199;-79
2023/08/10 07:16:25;;;;;;;3.17;2.13;;;21.20;62.70;23.10;101982.00;;;;5044456;28;20226;-79
2023/08/10 07:18:52;;;;;;;5.53;2.25;;;21.30;62.60;23.20;101980.00;;;;5043411;28;20199;-79
2023/08/10 07:21:20;;;;;;;2.72;2.20;;;21.40;62.60;23.20;101976.00;;;;5042280;28;20204;-79
2023/08/10 07:23:48;;;;;;;2.25;1.50;;;21.50;62.50;23.30;101984.00;;;;5040659;28;20227;-79
2023/08/10 07:26:16;;;;;;;3.65;1.67;;;21.60;62.40;23.40;101973.00;;;;5040939;28;20207;-80
2023/08/10 07:28:44;;;;;;;4.22;1.85;;;21.70;62.10;23.50;101980.00;;;;5042354;28;20583;-80
2023/08/10 07:31:12;;;;;;;2.55;1.30;;;21.80;61.60;23.60;101977.00;;;;5042750;28;20290;-80
2023/08/10 07:33:39;;;;;;;2.22;1.33;;;21.80;61.20;23.70;101975.00;;;;5039945;28;20279;-78
2023/08/10 07:36:07;;;;;;;2.40;1.40;;;21.90;60.80;23.80;101983.00;;;;5041892;28;20334;-80
2023/08/10 07:38:34;;;;;;;2.17;1.20;;;22.00;60.20;23.80;101989.00;;;;5042336;28;20242;-79
2023/08/10 07:41:02;;;;;;;2.63;1.83;;;22.10;60.10;23.90;101987.00;;;;5043547;28;20203;-79
2023/08/10 07:43:30;;;;;;;2.95;1.35;;;22.20;60.00;24.00;101994.00;;;;5043975;28;20223;-78
2023/08/10 07:45:58;;;;;;;1.38;1.02;;;22.30;59.50;24.10;101988.00;;;;5042045;28;20191;-78
2023/08/10 07:48:24;;;;;;;1.73;1.02;;;22.40;59.40;24.20;101983.00;;;;5042170;28;20199;-79
2023/08/10 07:50:52;;;;;;;1.98;0.80;;;22.50;59.50;24.30;101992.00;;;;5047062;28;20208;-78
2023/08/10 07:53:19;;;;;;;1.30;0.90;;;22.60;59.30;24.40;101996.00;;;;5048124;28;20208;-77
2023/08/10 07:55:46;;;;;;;1.45;0.95;;;22.70;59.10;24.50;101993.00;;;;5050249;28;20223;-79
2023/08/10 07:58:15;;;;;;;4.13;1.48;;;22.80;58.70;24.50;101991.00;;;;5049606;28;20228;-78
2023/08/10 08:00:44;;;;;;;0.95;0.82;;;22.90;58.40;24.60;101996.00;;;;5047674;28;20180;-78
2023/08/10 08:03:12;;;;;;;5.07;1.38;;;22.90;58.20;24.70;101995.00;;;;5042910;28;20199;-78
2023/08/10 08:05:40;;;;;;;1.25;1.05;;;23.00;58.10;24.70;101999.00;;;;5048933;28;20730;-78
2023/08/10 08:08:08;;;;;;;3.13;1.33;;;23.10;58.00;24.80;101999.00;;;;5046407;28;20200;-78
2023/08/10 08:10:36;;;;;;;5.65;1.35;;;23.10;57.90;24.80;101997.00;;;;5050019;28;20226;-79
2023/08/10 08:13:03;;;;;;;2.00;1.10;;;23.20;57.70;24.80;101994.00;;;;5049458;28;20208;-78
2023/08/10 08:15:31;;;;;;;2.08;1.20;;;23.30;57.40;24.80;101995.00;;;;5040889;28;20220;-78
2023/08/10 08:18:44;;;;;;;0.90;0.68;;;23.30;57.20;24.70;101998.00;;;;5042140;28;20195;-78
2023/08/10 08:21:14;;;;;;;5.70;1.40;;;23.30;56.60;24.80;102010.00;;;;5041494;28;20211;-78
2023/08/10 08:23:41;;;;;;;1.00;0.82;;;23.30;57.30;24.80;102000.00;;;;5045319;28;20257;-78
2023/08/10 08:26:09;;;;;;;1.13;0.70;;;23.30;57.30;24.80;102009.00;;;;5046589;28;20198;-78
2023/08/10 08:28:36;;;;;;;1.55;1.00;;;23.20;57.30;24.80;102018.00;;;;5049417;28;20200;-79
2023/08/10 08:31:04;;;;;;;1.10;0.88;;;23.20;57.30;24.90;102010.00;;;;5039159;28;20203;-78
2023/08/10 08:33:31;;;;;;;3.20;1.00;;;23.20;57.30;24.90;102011.00;;;;5049235;28;20191;-78
2023/08/10 08:35:59;;;;;;;0.93;0.80;;;23.30;57.20;24.90;102016.00;;;;5048708;28;20215;-78
2023/08/10 08:38:27;;;;;;;2.08;1.05;;;23.20;57.20;24.90;102018.00;;;;5048909;28;20218;-78
2023/08/10 08:40:55;;;;;;;2.50;0.90;;;23.20;57.30;24.90;102018.00;;;;5039694;28;20203;-78
2023/08/10 08:43:23;;;;;;;1.25;1.02;;;23.30;57.20;24.90;102026.00;;;;5046870;28;20227;-78
2023/08/10 08:45:51;;;;;;;3.45;1.05;;;23.30;57.20;24.90;102019.00;;;;5049515;28;20199;-78
2023/08/10 08:48:18;;;;;;;2.92;1.05;;;23.30;57.20;25.00;102019.00;;;;5048593;28;20199;-78
2023/08/10 08:50:47;;;;;;;1.38;0.95;;;23.30;57.00;25.00;102021.00;;;;5045195;28;20208;-78
2023/08/10 08:53:16;;;;;;;1.55;0.95;;;23.30;57.00;25.00;102015.00;;;;5040183;28;20204;-78
2023/08/10 08:55:46;;;;;;;2.70;1.10;;;23.30;57.00;25.00;102018.00;;;;5039758;28;20227;-78
2023/08/10 08:58:14;;;;;;;0.85;0.80;;;23.40;57.10;25.10;102019.00;;;;5046384;28;20231;-78
2023/08/10 09:00:47;;;;;;;2.85;1.15;;;23.40;57.00;25.10;102016.00;;;;5047899;28;20206;-77
2023/08/10 09:03:15;;;;;;;1.33;1.20;;;23.40;57.00;25.10;102020.00;;;;5047577;28;20188;-78
2023/08/10 09:05:42;;;;;;;1.45;1.10;;;23.50;57.00;25.10;102028.00;;;;5030606;28;20564;-78
2023/08/10 09:08:10;;;;;;;0.95;0.77;;;23.50;56.80;25.10;102026.00;;;;5048312;28;20188;-78
2023/08/10 09:10:39;;;;;;;1.30;1.00;;;23.50;56.60;25.10;102021.00;;;;5046861;28;20203;-78
2023/08/10 09:13:16;;;;;;;0.90;0.60;;;23.50;56.60;25.20;102011.00;;;;5047147;28;20203;-78
2023/08/10 09:15:43;;;;;;;2.45;1.08;;;23.60;56.70;25.30;102014.00;;;;5035650;28;20243;-79
2023/08/10 09:18:10;;;;;;;0.80;0.70;;;23.60;57.00;25.50;102014.00;;;;5044023;28;20199;-79
2023/08/10 09:20:38;;;;;;;1.83;0.90;;;23.70;56.90;25.60;102019.00;;;;5047039;28;20195;-80
2023/08/10 09:23:06;;;;;;;4.63;1.35;;;23.80;56.80;25.70;102022.00;;;;5048101;28;20196;-80
2023/08/10 09:25:39;;;;;;;0.77;0.57;;;24.00;56.80;25.70;102018.00;;;;5045123;28;20287;-80
2023/08/10 09:28:09;;;;;;;2.67;0.95;;;24.10;56.50;25.90;102015.00;;;;5048861;28;20689;-80
2023/08/10 09:30:36;;;;;;;1.55;1.27;;;24.20;56.10;26.00;102011.00;;;;5043411;28;20617;-81
2023/08/10 09:33:04;;;;;;;1.77;1.15;;;24.40;56.10;26.10;102006.00;;;;5043072;28;20206;-80
2023/08/10 09:35:32;;;;;;;1.50;1.10;;;24.50;55.80;26.20;102013.00;;;;5047109;28;20238;-79
2023/08/10 09:38:02;;;;;;;1.55;1.40;;;24.60;55.70;26.30;102022.00;;;;5045276;28;21047;-80
2023/08/10 09:40:29;;;;;;;2.17;1.10;;;24.70;55.90;26.40;102012.00;;;;5049149;28;20191;-80
2023/08/10 09:42:58;;;;;;;1.60;1.10;;;24.80;55.30;26.50;102022.00;;;;5046040;28;20214;-81
2023/08/10 09:45:25;;;;;;;1.80;1.48;;;24.90;55.30;26.60;102018.00;;;;5047408;28;20211;-82
2023/08/10 09:47:54;;;;;;;2.47;1.33;;;25.00;55.10;26.70;102014.00;;;;5042423;28;20695;-80
2023/08/10 09:50:21;;;;;;;3.10;1.60;;;25.20;55.10;26.80;102005.00;;;;5042268;28;20199;-80
2023/08/10 09:52:49;;;;;;;1.50;0.90;;;25.20;54.90;26.90;102008.00;;;;5049090;28;20191;-82
2023/08/10 09:55:16;;;;;;;1.10;0.80;;;25.40;54.70;27.00;102010.00;;;;5042308;28;20311;-80
2023/08/10 09:57:45;;;;;;;1.15;0.90;;;25.40;54.50;27.00;102013.00;;;;5046468;28;21078;-79
2023/08/10 10:00:18;;;;;;;1.50;1.27;;;25.50;54.30;27.10;102015.00;;;;5038062;28;20235;-79
2023/08/10 10:02:46;;;;;;;1.20;0.80;;;25.60;53.90;27.10;102014.00;;;;5039997;28;20228;-80
2023/08/10 10:05:14;;;;;;;1.77;0.90;;;25.70;54.20;27.20;102015.00;;;;5053788;28;20200;-79
2023/08/10 10:07:42;;;;;;;1.13;0.88;;;25.70;53.50;27.20;102008.00;;;;5050056;28;20211;-79
2023/08/10 10:10:15;;;;;;;3.70;1.10;;;25.70;53.00;27.20;102010.00;;;;5052015;28;20206;-81
2023/08/10 10:12:44;;;;;;;1.63;0.90;;;25.80;52.70;27.20;102014.00;;;;5049731;28;20243;-80
2023/08/10 10:15:14;;;;;;;1.30;0.70;;;25.80;52.60;27.30;102019.00;;;;5052445;28;20199;-80
2023/08/10 10:17:41;;;;;;;1.13;0.82;;;25.80;52.60;27.30;102015.00;;;;5050440;28;20509;-80
2023/08/10 10:20:11;;;;;;;0.80;0.68;;;25.90;52.60;27.30;102007.00;;;;5052870;28;20452;-80
2023/08/10 10:22:39;;;;;;;1.10;1.00;;;25.90;52.20;27.40;102010.00;;;;5039670;28;20231;-81
2023/08/10 10:25:14;;;;;;;3.90;0.98;;;25.90;52.30;27.40;102013.00;;;;5037498;28;20192;-80
2023/08/10 10:27:41;;;;;;;0.88;0.70;;;26.00;52.20;27.40;102019.00;;;;5033283;28;20207;-80
2023/08/10 10:30:20;;;;;;;1.88;1.00;;;26.00;52.00;27.40;102023.00;;;;5027684;28;20200;-80
2023/08/10 10:32:51;;;;;;;1.00;0.90;;;26.00;50.80;27.50;102017.00;;;;5040787;28;20195;-80
2023/08/10 10:35:23;;;;;;;0.98;0.88;;;26.10;52.30;27.50;102021.00;;;;5029396;28;20192;-79
2023/08/10 10:37:58;;;;;;;0.98;0.73;;;26.10;51.30;27.60;102029.00;;;;5045086;28;20204;-80
2023/08/10 10:40:27;;;;;;;3.50;1.02;;;26.20;51.50;27.70;102028.00;;;;5040340;28;20219;-80
2023/08/10 10:43:08;;;;;;;2.70;0.95;;;26.30;51.80;27.70;102020.00;;;;5028442;28;20220;-80
2023/08/10 10:45:39;;;;;;;1.13;0.98;;;26.30;51.90;27.90;102023.00;;;;5027989;28;20794;-79
2023/08/10 10:48:07;;;;;;;1.67;0.80;;;26.50;51.90;28.00;102021.00;;;;5041877;28;20195;-80
2023/08/10 10:50:36;;;;;;;1.00;0.80;;;26.50;51.70;28.00;102025.00;;;;5043695;28;20197;-80
2023/08/10 10:53:05;;;;;;;1.48;0.90;;;26.50;51.30;28.00;102019.00;;;;5047083;28;20737;-80